createdAt,value
2017-11-15T00:01:56.705Z,101821.08
2017-11-15T00:04:24.347Z,101814.59
2017-11-15T00:06:51.870Z,101817.98
2017-11-15T00:09:19.489Z,101823.37
2017-11-15T00:11:47.042Z,101820.14
2017-11-15T00:14:14.966Z,101819.76
2017-11-15T00:16:42.506Z,101819.96
2017-11-15T00:19:10.052Z,101816.82
2017-11-15T00:21:37.938Z,101830.11
2017-11-15T00:24:05.461Z,101830.86
2017-11-15T00:26:32.982Z,101833.04
2017-11-15T00:29:00.652Z,101835.54
2017-11-15T00:31:28.173Z,101842.07
2017-11-15T00:33:55.710Z,101840.28
2017-11-15T00:36:23.356Z,101844.91
2017-11-15T00:38:50.922Z,101845.80
2017-11-15T00:41:18.445Z,101836.67
2017-11-15T00:43:46.012Z,101843.52
2017-11-15T00:46:13.537Z,101845.95
2017-11-15T00:48:41.090Z,101841.96
2017-11-15T00:51:09.088Z,101841.12
2017-11-15T00:53:36.635Z,101837.26
2017-11-15T00:56:04.156Z,101839.38
2017-11-15T00:58:31.712Z,101839.65
2017-11-15T01:00:59.240Z,101833.19
2017-11-15T01:03:26.912Z,101837.13
2017-11-15T01:05:54.451Z,101840.11
2017-11-15T01:08:21.971Z,101838.19
2017-11-15T01:10:49.531Z,101836.84
2017-11-15T01:13:17.082Z,101837.50
2017-11-15T01:15:44.622Z,101834.66
2017-11-15T01:18:12.590Z,101831.78
2017-11-15T01:20:40.120Z,101836.35
2017-11-15T01:23:07.687Z,101838.20
2017-11-15T01:25:35.350Z,101837.66
2017-11-15T01:28:02.879Z,101838.73
2017-11-15T01:30:30.405Z,101842.67
2017-11-15T01:32:58.088Z,101842.43
2017-11-15T01:35:25.622Z,101847.88
2017-11-15T01:37:53.166Z,101848.52
2017-11-15T01:40:20.722Z,101850.88
2017-11-15T01:42:48.262Z,101851.80
2017-11-15T01:45:15.814Z,101857.28
2017-11-15T01:47:44.358Z,101851.99
2017-11-15T01:50:12.250Z,101846.17
2017-11-15T01:52:39.775Z,101846.05
2017-11-15T01:55:07.315Z,101840.45
2017-11-15T01:57:34.881Z,101840.55
2017-11-15T02:00:02.438Z,101839.92
2017-11-15T02:02:29.993Z,101836.31
2017-11-15T02:04:57.575Z,101841.14
2017-11-15T02:07:25.170Z,101832.17
2017-11-15T02:09:52.719Z,101840.61
2017-11-15T02:12:20.293Z,101831.24
2017-11-15T02:14:47.839Z,101824.88
2017-11-15T02:17:15.425Z,101819.87
2017-11-15T02:19:42.971Z,101823.06
2017-11-15T02:22:10.517Z,101821.06
2017-11-15T02:24:38.086Z,101823.27
2017-11-15T02:27:05.669Z,101814.55
2017-11-15T02:29:33.205Z,101820.11
2017-11-15T02:32:01.231Z,101821.44
2017-11-15T02:34:28.790Z,101824.39
2017-11-15T02:36:56.326Z,101816.14
2017-11-15T02:39:24.043Z,101822.21
2017-11-15T02:41:51.591Z,101816.33
2017-11-15T02:44:19.139Z,101822.34
2017-11-15T02:46:46.813Z,101818.56
2017-11-15T02:49:14.371Z,101819.30
2017-11-15T02:51:41.927Z,101813.18
2017-11-15T02:54:09.489Z,101813.12
2017-11-15T02:56:37.077Z,101807.70
2017-11-15T02:59:04.608Z,101805.20
2017-11-15T03:01:32.166Z,101805.86
2017-11-15T03:03:59.826Z,101807.30
2017-11-15T03:06:27.352Z,101807.01
2017-11-15T03:08:54.942Z,101811.09
2017-11-15T03:11:22.646Z,101812.13
2017-11-15T03:13:50.202Z,101806.81
2017-11-15T03:16:17.814Z,101804.93
2017-11-15T03:18:45.759Z,101813.84
2017-11-15T03:21:15.269Z,101815.33
2017-11-15T03:23:42.805Z,101813.02
2017-11-15T03:26:10.391Z,101819.74
2017-11-15T03:28:37.926Z,101822.45
2017-11-15T03:31:05.455Z,101820.27
2017-11-15T03:33:33.063Z,101822.99
2017-11-15T03:36:00.594Z,101827.61
2017-11-15T03:38:28.131Z,101827.67
2017-11-15T03:40:55.802Z,101832.37
2017-11-15T03:43:23.353Z,101836.41
2017-11-15T03:45:50.884Z,101835.08
2017-11-15T03:48:18.430Z,101833.27
2017-11-15T03:50:45.957Z,101837.11
2017-11-15T03:53:13.532Z,101835.02
2017-11-15T03:55:41.052Z,101829.27
2017-11-15T03:58:08.603Z,101826.50
2017-11-15T04:00:36.702Z,101824.84
2017-11-15T04:03:04.234Z,101824.82
2017-11-15T04:05:31.849Z,101822.21
2017-11-15T04:07:59.401Z,101821.55
2017-11-15T04:10:27.369Z,101817.37
2017-11-15T04:12:54.897Z,101814.22
2017-11-15T04:15:22.459Z,101817.24
2017-11-15T04:17:50.174Z,101818.24
2017-11-15T04:20:17.707Z,101821.29
2017-11-15T04:22:45.235Z,101825.58
2017-11-15T04:25:13.266Z,101824.25
2017-11-15T04:27:40.820Z,101825.83
2017-11-15T04:30:09.646Z,101826.41
2017-11-15T04:32:37.614Z,101823.58
2017-11-15T04:35:05.172Z,101823.85
2017-11-15T04:37:32.745Z,101820.75
2017-11-15T04:40:00.746Z,101828.34
2017-11-15T04:42:28.306Z,101827.38
2017-11-15T04:44:55.866Z,101829.53
2017-11-15T04:47:23.435Z,101835.58
2017-11-15T04:49:51.044Z,101843.94
2017-11-15T04:52:18.597Z,101839.73
2017-11-15T04:54:46.156Z,101837.45
2017-11-15T04:57:13.865Z,101839.92
2017-11-15T04:59:41.428Z,101837.31
2017-11-15T05:02:08.979Z,101830.54
2017-11-15T05:04:36.573Z,101829.00
2017-11-15T05:07:04.735Z,101829.58
2017-11-15T05:09:32.634Z,101833.89
2017-11-15T05:12:00.156Z,101841.47
2017-11-15T05:14:27.698Z,101839.39
2017-11-15T05:16:55.284Z,101841.73
2017-11-15T05:19:23.017Z,101838.80
2017-11-15T05:21:50.582Z,101845.11
2017-11-15T05:24:18.386Z,101850.88
2017-11-15T05:26:45.934Z,101857.56
2017-11-15T05:29:13.476Z,101856.02
2017-11-15T05:31:41.438Z,101854.09
2017-11-15T05:34:08.967Z,101858.35
2017-11-15T05:36:36.489Z,101857.23
2017-11-15T05:39:04.242Z,101852.67
2017-11-15T05:41:31.779Z,101857.73
2017-11-15T05:43:59.309Z,101852.06
2017-11-15T05:46:28.002Z,101863.30
2017-11-15T05:48:55.517Z,101863.72
2017-11-15T05:51:23.042Z,101860.20
2017-11-15T05:53:51.421Z,101855.27
2017-11-15T05:56:18.994Z,101857.52
2017-11-15T05:58:46.526Z,101858.95
2017-11-15T06:01:15.100Z,101860.50
2017-11-15T06:05:27.630Z,101862.50
2017-11-15T06:07:55.211Z,101864.41
2017-11-15T06:10:22.856Z,101864.22
2017-11-15T06:12:50.384Z,101864.67
2017-11-15T06:15:18.311Z,101864.48
2017-11-15T06:17:45.850Z,101869.17
2017-11-15T06:20:13.560Z,101864.20
2017-11-15T06:22:41.201Z,101867.05
2017-11-15T06:25:08.704Z,101865.74
2017-11-15T06:27:36.317Z,101872.88
2017-11-15T06:30:03.851Z,101873.52
2017-11-15T06:32:31.490Z,101877.23
2017-11-15T06:34:59.021Z,101881.27
2017-11-15T06:37:26.708Z,101886.41
2017-11-15T06:39:54.639Z,101886.31
2017-11-15T06:42:22.183Z,101893.49
2017-11-15T06:44:49.753Z,101889.83
2017-11-15T06:47:17.372Z,101890.18
2017-11-15T06:49:45.874Z,101892.97
2017-11-15T06:52:13.779Z,101895.98
2017-11-15T06:54:41.309Z,101895.36
2017-11-15T06:57:08.867Z,101903.39
2017-11-15T06:59:36.462Z,101905.05
2017-11-15T07:02:04.793Z,101908.30
2017-11-15T07:04:32.330Z,101916.31
2017-11-15T07:06:59.921Z,101915.44
2017-11-15T07:09:27.449Z,101921.75
2017-11-15T07:11:54.974Z,101918.60
2017-11-15T07:14:23.373Z,101922.80
2017-11-15T07:16:50.893Z,101924.52
2017-11-15T07:19:18.554Z,101931.20
2017-11-15T07:21:46.266Z,101933.58
2017-11-15T07:24:14.471Z,101938.36
2017-11-15T07:26:42.010Z,101938.14
2017-11-15T07:29:09.567Z,101941.70
2017-11-15T07:31:38.806Z,101943.33
2017-11-15T07:34:06.361Z,101944.25
2017-11-15T07:36:33.893Z,101947.69
2017-11-15T07:39:01.859Z,101947.74
2017-11-15T07:41:30.219Z,101947.77
2017-11-15T07:43:57.818Z,101952.08
2017-11-15T07:46:25.411Z,101950.31
2017-11-15T07:48:53.208Z,101948.41
2017-11-15T07:51:20.861Z,101955.35
2017-11-15T07:53:48.453Z,101952.56
2017-11-15T07:56:15.982Z,101950.91
2017-11-15T07:58:44.246Z,101950.93
2017-11-15T08:01:11.823Z,101959.64
2017-11-15T08:03:39.357Z,101953.43
2017-11-15T08:06:07.702Z,101957.70
2017-11-15T08:08:35.278Z,101953.87
2017-11-15T08:11:03.509Z,101958.52
2017-11-15T08:13:31.114Z,101957.65
2017-11-15T08:15:58.649Z,101955.89
2017-11-15T08:18:26.180Z,101954.64
2017-11-15T08:20:53.819Z,101960.42
2017-11-15T08:23:21.352Z,101957.62
2017-11-15T08:25:48.929Z,101958.11
2017-11-15T08:28:16.449Z,101959.17
2017-11-15T08:30:43.978Z,101964.19
2017-11-15T08:33:11.634Z,101963.98
2017-11-15T08:35:39.182Z,101961.41
2017-11-15T08:38:06.793Z,101962.14
2017-11-15T08:40:34.377Z,101959.97
2017-11-15T08:43:02.739Z,101961.23
2017-11-15T08:45:30.288Z,101959.98
2017-11-15T08:47:58.257Z,101957.55
2017-11-15T08:50:25.785Z,101953.83
2017-11-15T08:52:53.330Z,101953.69
2017-11-15T08:55:21.305Z,101955.34
2017-11-15T08:57:48.838Z,101953.04
2017-11-15T09:00:16.387Z,101957.23
2017-11-15T09:02:44.273Z,101959.13
2017-11-15T09:05:11.793Z,101958.66
2017-11-15T09:07:39.355Z,101957.45
2017-11-15T09:10:06.920Z,101967.12
2017-11-15T09:12:34.447Z,101967.45
2017-11-15T09:15:02.035Z,101966.38
2017-11-15T09:17:29.565Z,101971.73
2017-11-15T09:19:57.103Z,101972.25
2017-11-15T09:22:24.699Z,101972.11
2017-11-15T09:24:52.226Z,101974.20
2017-11-15T09:27:19.751Z,101973.72
2017-11-15T09:29:47.713Z,101975.66
2017-11-15T09:32:15.230Z,101974.31
2017-11-15T09:34:42.755Z,101974.50
2017-11-15T09:37:10.293Z,101974.94
2017-11-15T09:39:37.805Z,101981.03
2017-11-15T09:42:05.467Z,101987.39
2017-11-15T09:44:33.009Z,101991.79
2017-11-15T09:47:00.556Z,101987.74
2017-11-15T09:49:28.217Z,101989.22
2017-11-15T09:51:55.771Z,101993.98
2017-11-15T09:54:23.306Z,101993.75
2017-11-15T09:56:51.321Z,101993.34
2017-11-15T09:59:18.846Z,101994.19
2017-11-15T10:01:46.379Z,101998.99
2017-11-15T10:04:13.926Z,101999.50
2017-11-15T10:06:41.838Z,101999.63
2017-11-15T10:09:11.258Z,101997.91
2017-11-15T10:11:38.838Z,102000.30
2017-11-15T10:14:06.506Z,102001.09
2017-11-15T10:16:34.030Z,102002.56
2017-11-15T10:19:04.447Z,101992.66
2017-11-15T10:21:32.377Z,101991.98
2017-11-15T10:23:59.906Z,101994.55
2017-11-15T10:26:28.004Z,101997.25
2017-11-15T10:28:55.574Z,101989.83
2017-11-15T10:31:23.127Z,101989.64
2017-11-15T10:33:50.645Z,101986.37
2017-11-15T10:36:18.200Z,101986.25
2017-11-15T10:38:47.741Z,101984.52
2017-11-15T10:41:15.264Z,101983.86
2017-11-15T10:43:42.798Z,101980.81
2017-11-15T10:46:12.514Z,101984.35
2017-11-15T10:48:40.030Z,101985.07
2017-11-15T10:51:07.579Z,101976.63
2017-11-15T10:53:35.125Z,101976.84
2017-11-15T10:56:02.683Z,101977.77
2017-11-15T10:58:30.235Z,101981.95
2017-11-15T11:00:57.859Z,101978.60
2017-11-15T11:03:25.417Z,101971.88
2017-11-15T11:05:53.401Z,101974.84
2017-11-15T11:08:20.921Z,101974.45
2017-11-15T11:10:48.477Z,101972.06
2017-11-15T11:13:16.082Z,101980.89
2017-11-15T11:15:43.601Z,101973.97
2017-11-15T11:18:11.156Z,101975.20
2017-11-15T11:20:39.158Z,101972.09
2017-11-15T11:23:06.683Z,101970.59
2017-11-15T11:25:34.202Z,101971.00
2017-11-15T11:28:02.908Z,101971.52
2017-11-15T11:30:30.455Z,101976.02
2017-11-15T11:32:57.996Z,101970.66
2017-11-15T11:35:25.715Z,101967.69
2017-11-15T11:37:55.017Z,101966.53
2017-11-15T11:40:22.554Z,101966.62
2017-11-15T11:42:50.103Z,101961.98
2017-11-15T11:45:17.620Z,101968.87
2017-11-15T11:47:45.158Z,101973.30
2017-11-15T11:50:12.673Z,101969.52
2017-11-15T11:52:42.320Z,101974.30
2017-11-15T11:55:09.866Z,101962.35
2017-11-15T11:57:37.403Z,101971.58
2017-11-15T12:00:04.963Z,101973.38
2017-11-15T12:02:32.541Z,101966.57
2017-11-15T12:05:00.066Z,101963.71
2017-11-15T12:07:27.589Z,101954.48
2017-11-15T12:09:55.323Z,101962.78
2017-11-15T12:12:23.665Z,101961.20
2017-11-15T12:14:51.195Z,101968.44
2017-11-15T12:17:19.114Z,101970.27
2017-11-15T12:19:46.647Z,101968.13
2017-11-15T12:22:14.180Z,101960.88
2017-11-15T12:24:41.877Z,101962.03
2017-11-15T12:27:09.409Z,101959.39
2017-11-15T12:29:36.938Z,101969.95
2017-11-15T12:32:05.084Z,101965.76
2017-11-15T12:34:32.672Z,101971.56
2017-11-15T12:37:00.207Z,101964.77
2017-11-15T12:39:27.938Z,101953.69
2017-11-15T12:41:55.477Z,101958.98
2017-11-15T12:44:23.414Z,101953.38
2017-11-15T12:46:51.092Z,101948.30
2017-11-15T12:49:18.606Z,101943.23
2017-11-15T12:51:46.159Z,101948.34
2017-11-15T12:54:15.195Z,101936.52
2017-11-15T12:56:42.726Z,101940.48
2017-11-15T12:59:10.915Z,101933.15
2017-11-15T13:01:38.471Z,101930.88
2017-11-15T13:04:06.013Z,101928.95
2017-11-15T13:06:33.660Z,101929.14
2017-11-15T13:09:01.514Z,101931.91
2017-11-15T13:11:29.121Z,101934.03
2017-11-15T13:13:56.651Z,101938.14
2017-11-15T13:16:24.346Z,101935.31
2017-11-15T13:18:51.903Z,101933.56
2017-11-15T13:21:19.439Z,101937.66
2017-11-15T13:23:47.432Z,101926.44
2017-11-15T13:26:14.999Z,101937.84
2017-11-15T13:28:42.532Z,101938.59
2017-11-15T13:31:10.111Z,101944.22
2017-11-15T13:33:37.786Z,101937.30
2017-11-15T13:36:05.332Z,101942.64
2017-11-15T13:38:32.878Z,101945.51
2017-11-15T13:41:00.615Z,101938.92
2017-11-15T13:43:28.150Z,101947.55
2017-11-15T13:45:55.675Z,101944.30
2017-11-15T13:48:23.280Z,101941.41
2017-11-15T13:50:50.812Z,101950.67
2017-11-15T13:53:18.338Z,101947.11
2017-11-15T13:55:45.926Z,101941.80
2017-11-15T13:58:13.455Z,101939.23
2017-11-15T14:00:41.001Z,101942.59
2017-11-15T14:03:08.737Z,101951.11
2017-11-15T14:05:36.282Z,101948.28
2017-11-15T14:08:03.830Z,101945.23
2017-11-15T14:12:33.930Z,101941.76
2017-11-15T14:15:01.455Z,101942.00
2017-11-15T14:17:29.877Z,101945.95
2017-11-15T14:19:57.412Z,101943.08
2017-11-15T14:22:24.999Z,101937.38
2017-11-15T14:24:52.516Z,101944.65
2017-11-15T14:27:20.042Z,101947.19
2017-11-15T14:29:47.930Z,101947.84
2017-11-15T14:32:15.440Z,101945.09
2017-11-15T14:34:42.975Z,101950.78
2017-11-15T14:37:10.544Z,101954.31
2017-11-15T14:39:38.226Z,101953.95
2017-11-15T14:42:05.742Z,101965.79
2017-11-15T14:44:33.554Z,101963.21
2017-11-15T14:47:01.257Z,101960.52
2017-11-15T14:49:28.785Z,101969.13
2017-11-15T14:51:56.309Z,101965.79
2017-11-15T14:54:23.867Z,101964.30
2017-11-15T14:56:51.412Z,101964.02
2017-11-15T14:59:19.331Z,101960.24
2017-11-15T15:01:46.894Z,101958.77
2017-11-15T15:04:15.379Z,101952.78
2017-11-15T15:06:42.973Z,101954.42
2017-11-15T15:09:10.503Z,101949.36
2017-11-15T15:11:38.058Z,101949.14
2017-11-15T15:14:05.662Z,101952.31
2017-11-15T15:16:33.194Z,101957.27
2017-11-15T15:19:00.713Z,101955.73
2017-11-15T15:21:28.302Z,101955.62
2017-11-15T15:23:55.831Z,101948.77
2017-11-15T15:26:23.355Z,101953.97
2017-11-15T15:28:51.027Z,101950.23
2017-11-15T15:31:18.555Z,101952.23
2017-11-15T15:33:46.073Z,101950.38
2017-11-15T15:36:13.608Z,101960.70
2017-11-15T15:38:41.134Z,101953.18
2017-11-15T15:41:08.673Z,101954.00
2017-11-15T15:43:36.357Z,101951.39
2017-11-15T15:46:03.882Z,101955.34
2017-11-15T15:48:31.409Z,101957.12
2017-11-15T15:50:59.178Z,101962.37
2017-11-15T15:53:26.703Z,101965.61
2017-11-15T15:55:54.243Z,101958.13
2017-11-15T15:58:21.797Z,101956.47
2017-11-15T16:00:49.347Z,101968.06
2017-11-15T16:03:16.882Z,101963.94
2017-11-15T16:05:44.441Z,101973.14
2017-11-15T16:08:11.971Z,101972.53
2017-11-15T16:10:39.546Z,101969.98
2017-11-15T16:13:07.126Z,101962.75
2017-11-15T16:15:34.654Z,101965.67
2017-11-15T16:18:02.183Z,101965.46
2017-11-15T16:20:29.759Z,101958.19
2017-11-15T16:22:57.288Z,101965.15
2017-11-15T16:25:24.814Z,101971.17
2017-11-15T16:27:52.567Z,101971.36
2017-11-15T16:30:20.091Z,101976.52
2017-11-15T16:32:47.614Z,101973.09
2017-11-15T16:35:15.540Z,101978.97
2017-11-15T16:37:43.074Z,101986.70
2017-11-15T16:40:10.598Z,101978.78
2017-11-15T16:42:38.319Z,101985.11
2017-11-15T16:45:05.860Z,101978.03
2017-11-15T16:47:33.384Z,101983.07
2017-11-15T16:50:01.345Z,101985.38
2017-11-15T16:52:28.864Z,101989.73
2017-11-15T16:54:56.379Z,101990.98
2017-11-15T16:57:24.165Z,101986.13
2017-11-15T16:59:51.710Z,101994.25
2017-11-15T17:02:19.242Z,101991.92
2017-11-15T17:04:46.792Z,101990.22
2017-11-15T17:07:14.322Z,101992.39
2017-11-15T17:09:41.877Z,101987.18
2017-11-15T17:12:09.411Z,101982.53
2017-11-15T17:14:36.982Z,101980.73
2017-11-15T17:17:04.502Z,101976.20
2017-11-15T17:19:32.017Z,101971.02
2017-11-15T17:21:59.608Z,101974.95
2017-11-15T17:24:27.138Z,101978.22
2017-11-15T17:26:54.657Z,101972.00
2017-11-15T17:29:22.225Z,101978.50
2017-11-15T17:31:50.169Z,101981.36
2017-11-15T17:34:17.690Z,101984.20
2017-11-15T17:36:45.229Z,101984.45
2017-11-15T17:39:13.162Z,101985.76
2017-11-15T17:41:40.710Z,101989.47
2017-11-15T17:44:08.278Z,101986.23
2017-11-15T17:46:35.852Z,101985.97
2017-11-15T17:49:03.404Z,101983.45
2017-11-15T17:51:30.981Z,101985.39
2017-11-15T17:53:58.515Z,101979.29
2017-11-15T17:56:26.086Z,101984.19
2017-11-15T17:58:53.628Z,101981.20
2017-11-15T18:01:21.367Z,101980.59
2017-11-15T18:03:48.880Z,101978.64
2017-11-15T18:06:16.401Z,101978.23
2017-11-15T18:08:44.389Z,101978.03
2017-11-15T18:11:11.901Z,101967.73
2017-11-15T18:13:39.421Z,101960.92
2017-11-15T18:16:07.105Z,101965.73
2017-11-15T18:18:34.690Z,101959.37
2017-11-15T18:21:02.231Z,101955.75
2017-11-15T18:23:29.816Z,101950.38
2017-11-15T18:25:57.367Z,101953.84
2017-11-15T18:28:24.894Z,101956.28
2017-11-15T18:30:53.674Z,101960.30
2017-11-15T18:33:21.195Z,101953.56
2017-11-15T18:35:48.709Z,101951.11
2017-11-15T18:38:16.259Z,101959.31
2017-11-15T18:40:43.847Z,101957.48
2017-11-15T18:43:11.385Z,101964.42
2017-11-15T18:45:38.949Z,101965.20
2017-11-15T18:48:06.493Z,101967.54
2017-11-15T18:50:34.237Z,101961.98
2017-11-15T18:53:01.765Z,101961.83
2017-11-15T18:55:29.299Z,101956.22
2017-11-15T18:57:56.865Z,101957.88
2017-11-15T19:00:24.444Z,101956.94
2017-11-15T19:02:51.997Z,101951.52
2017-11-15T19:05:19.691Z,101960.53
2017-11-15T19:07:47.223Z,101959.84
2017-11-15T19:10:14.740Z,101961.70
2017-11-15T19:12:42.402Z,101963.30
2017-11-15T19:15:09.956Z,101963.17
2017-11-15T19:17:37.469Z,101960.06
2017-11-15T19:20:05.042Z,101963.77
2017-11-15T19:22:32.563Z,101955.23
2017-11-15T19:25:00.094Z,101953.38
2017-11-15T19:27:28.047Z,101949.95
2017-11-15T19:29:55.561Z,101951.93
2017-11-15T19:32:23.164Z,101952.09
2017-11-15T19:34:50.732Z,101958.73
2017-11-15T19:37:18.256Z,101961.50
2017-11-15T19:39:45.782Z,101954.35
2017-11-15T19:42:13.444Z,101967.72
2017-11-15T19:44:40.974Z,101962.50
2017-11-15T19:47:08.503Z,101961.90
2017-11-15T19:49:36.116Z,101960.39
2017-11-15T19:52:03.640Z,101959.25
2017-11-15T19:54:31.169Z,101966.72
2017-11-15T19:56:59.114Z,101959.63
2017-11-15T19:59:26.634Z,101956.92
2017-11-15T20:01:54.158Z,101953.63
2017-11-15T20:04:21.706Z,101956.81
2017-11-15T20:06:49.285Z,101961.56
2017-11-15T20:09:16.825Z,101956.27
2017-11-15T20:11:44.347Z,101963.42
2017-11-15T20:14:11.958Z,101964.40
2017-11-15T20:16:39.480Z,101968.66
2017-11-15T20:19:06.993Z,101963.30
2017-11-15T20:21:34.850Z,101968.24
2017-11-15T20:24:02.374Z,101959.50
2017-11-15T20:26:29.899Z,101960.11
2017-11-15T20:28:57.893Z,101969.89
2017-11-15T20:31:25.426Z,101965.46
2017-11-15T20:33:52.949Z,101967.78
2017-11-15T20:36:20.492Z,101965.42
2017-11-15T20:38:48.049Z,101963.74
2017-11-15T20:41:15.578Z,101961.19
2017-11-15T20:43:43.154Z,101961.30
2017-11-15T20:46:10.669Z,101957.78
2017-11-15T20:48:38.191Z,101961.30
2017-11-15T20:51:05.746Z,101956.42
2017-11-15T20:53:33.294Z,101958.98
2017-11-15T20:56:00.835Z,101959.58
2017-11-15T20:58:28.571Z,101962.05
2017-11-15T21:00:56.097Z,101957.81
2017-11-15T21:03:23.629Z,101962.30
2017-11-15T21:05:51.293Z,101961.49
2017-11-15T21:08:18.817Z,101959.87
2017-11-15T21:10:46.353Z,101963.67
2017-11-15T21:13:13.937Z,101955.21
2017-11-15T21:15:41.465Z,101951.77
2017-11-15T21:18:08.990Z,101955.61
2017-11-15T21:20:36.539Z,101954.62
2017-11-15T21:23:04.298Z,101954.89
2017-11-15T21:25:31.826Z,101954.30
2017-11-15T21:27:59.341Z,101953.63
2017-11-15T21:30:27.021Z,101961.49
2017-11-15T21:32:54.660Z,101961.31
2017-11-15T21:35:22.200Z,101959.85
2017-11-15T21:37:49.769Z,101964.14
2017-11-15T21:40:17.288Z,101959.25
2017-11-15T21:42:44.812Z,101954.91
2017-11-15T21:45:12.390Z,101958.19
2017-11-15T21:47:39.909Z,101963.38
2017-11-15T21:50:07.489Z,101957.80
2017-11-15T21:52:35.173Z,101958.47
2017-11-15T21:55:02.701Z,101958.13
2017-11-15T21:57:30.224Z,101955.70
2017-11-15T21:59:57.769Z,101952.58
2017-11-15T22:02:25.363Z,101954.02
2017-11-15T22:04:52.897Z,101949.81
2017-11-15T22:07:20.422Z,101945.78
2017-11-15T22:09:48.201Z,101945.36
2017-11-15T22:12:15.731Z,101936.11
2017-11-15T22:14:43.261Z,101931.27
2017-11-15T22:17:11.211Z,101935.05
2017-11-15T22:19:38.766Z,101930.67
2017-11-15T22:22:06.295Z,101930.41
2017-11-15T22:24:33.880Z,101931.00
2017-11-15T22:27:01.403Z,101934.47
2017-11-15T22:29:28.949Z,101932.85
2017-11-15T22:31:56.469Z,101932.02
2017-11-15T22:34:24.050Z,101928.11
2017-11-15T22:36:52.024Z,101927.59
2017-11-15T22:39:19.550Z,101932.34
2017-11-15T22:41:47.066Z,101938.41
2017-11-15T22:44:14.658Z,101936.36
2017-11-15T22:46:42.173Z,101944.03
2017-11-15T22:49:09.693Z,101936.48
2017-11-15T22:51:37.266Z,101935.63
2017-11-15T22:54:04.814Z,101934.97
2017-11-15T22:56:32.334Z,101928.50
2017-11-15T22:58:59.874Z,101927.25
2017-11-15T23:01:27.402Z,101931.28
2017-11-15T23:03:55.093Z,101928.30
2017-11-15T23:06:22.614Z,101924.16
2017-11-15T23:08:50.144Z,101923.12
2017-11-15T23:11:17.698Z,101920.23
2017-11-15T23:13:45.228Z,101920.81
2017-11-15T23:16:12.975Z,101926.11
2017-11-15T23:18:40.492Z,101917.50
2017-11-15T23:21:08.009Z,101908.95
2017-11-15T23:23:35.885Z,101913.16
2017-11-15T23:26:03.446Z,101908.52
2017-11-15T23:28:30.966Z,101906.45
2017-11-15T23:30:58.634Z,101909.52
2017-11-15T23:33:26.165Z,101907.86
2017-11-15T23:35:53.839Z,101899.59
2017-11-15T23:38:21.538Z,101896.96
2017-11-15T23:40:49.067Z,101899.55
2017-11-15T23:43:16.646Z,101890.60
2017-11-15T23:45:44.179Z,101882.66
2017-11-15T23:48:11.714Z,101885.83
2017-11-15T23:50:39.290Z,101885.45
2017-11-15T23:53:06.810Z,101885.70
2017-11-15T23:55:34.381Z,101886.31
2017-11-15T23:58:01.905Z,101886.63
